Enumclaw, WA

8:10 PM PST on February 11, 2016 (GMT -0800)
Mt. Meadows | | Change Station
CLOSE
Current Station
Personal Weather Station
Location: Enumclaw, WA
Elevation: 728 ft
Nearby Weather Stations

Elev 728 ft 47.19 °N, 122.00 °W | Updated 4 minutes ago

Overcast
Overcast
50.2 °F
Feels Like 50.2 °F
N
2.2
Wind Variable Wind from East

Today
High -- | Low -- °F
--% Chance of Precip.
Yesterday
High -- | Low -- °F
Precip. -- in
Pressure 30.11 in
Visibility 2.5 miles
Clouds Overcast 3600 ft
Dew Point 50 °F
Humidity 99%
Rainfall 0.30 in
Snow Depth Not available.
7:19 AM 5:25 PM
Waxing Crescent, 17% visible
METAR KPLU 120355Z AUTO 00000KT 2 1/2SM BR OVC036 10/10 A3011 RMK AO2 VIS 2V4
Pressure 30.11 in
Visibility 2.5 miles
Clouds Overcast 3600 ft
Dew Point 50 °F
Humidity 99%
Rainfall 0.30 in
Snow Depth Not available.
7:19 AM 5:25 PM
Waxing Crescent, 17% visible
METAR KPLU 120355Z AUTO 00000KT 2 1/2SM BR OVC036 10/10 A3011 RMK AO2 VIS 2V4

10-Day Weather Forecast

Almanac

Astronomy

Feb. 11, 2016 Rise Set
Actual Time
Civil Twilight
Nautical Twilight
Astronomical Twilight
Moon
Length of Visible Light
Length of Day
Tomorrow will be .
, % of the Moon is Illuminated

Today's Extremes

State Highs State Lows

Community

WunderPhotos

Upload Photos

1,892,254 photos uploaded!

WunderBlog® & News

Nearby

Air Quality

  Air Quality AQ Index Pollutant
Not available.

Snow Depth

Station Depth Elevation

Earthquake Activity

City Distance Mag. Time & Date
Minimum magnitude displayed is 2.5.

Coastal Water Temperatures

Place Temperature

Stations

Nearby Weather Stations

Station Location Temp. Windchill Dew Point Humidity Wind Precip. Elev Updated Type
                   

Watches & Warnings

There are currently no watches in effect.